This is the latest recevied weather packets stored in our database for station/object EA4IAJ-12. If no packets are shown the sender has not sent any weather packets the latest 10 day(s).
| Time | Temp. | Humidity | Pressure | Rain* | Wind** | Luminosity | Snow |
|---|---|---|---|---|---|---|---|
| 1787376067 | 18.89° C | 70% | 994.5 hPa | - | - | - | - |
| 1787375167 | 19.44° C | 69% | 996.2 hPa | - | - | - | - |
| 1787374266 | 19.44° C | 68% | 996.4 hPa | - | - | - | - |
| 1787373365 | 19.44° C | 66% | 996.8 hPa | - | - | - | - |
| 1787372465 | 20° C | 65% | 997 hPa | - | - | - | - |
| 1787371564 | 20° C | 63% | 996.6 hPa | - | - | - | - |
| 1787370679 | 19.44° C | 61% | 996 hPa | - | - | - | - |
| 1787369779 | 19.44° C | 60% | 996.1 hPa | - | - | - | - |
| 1787368878 | 20° C | 58% | 996.8 hPa | - | - | - | - |
| 1787367977 | 20° C | 57% | 996.6 hPa | - | - | - | - |
| 1787367077 | 20° C | 55% | 997.3 hPa | - | - | - | - |
| 1787366176 | 20.56° C | 54% | 998.5 hPa | - | - | - | - |
| 1787365276 | 20.56° C | 53% | 998.5 hPa | - | - | - | - |
| 1787364375 | 20.56° C | 51% | 998.5 hPa | - | - | - | - |
| 1787363475 | 21.11° C | 50% | 998.7 hPa | - | - | - | - |
| 1787362577 | 21.11° C | 49% | 999.4 hPa | - | - | - | - |
| 1787361671 | 21.11° C | 47% | 999.6 hPa | - | - | - | - |
| 1787360770 | 21.67° C | 46% | 999.8 hPa | - | - | - | - |
| 1787359870 | 21.67° C | 45% | 999.5 hPa | - | - | - | - |
| 1787358969 | 21.67° C | 44% | 1000.2 hPa | - | - | - | - |
| 1787358069 | 22.22° C | 43% | 1001.5 hPa | - | - | - | - |
| 1787357168 | 22.22° C | 42% | 1001.3 hPa | - | - | - | - |
* Rain since midnight (hover to see other rain measurements)
** Current wind speed in m/s (hover to see current wind gust speed)